Mountain Lake, MN

12:29 AM CDT on September 16, 2014 (GMT -0500)
Jackson Municipal | Change Station
CLOSE
Current Station
Airport
Location: Jackson,
Elevation: 1447 ft
Nearby Weather Stations

Elev 1447 ft 43.65 °N, 94.99 °W | Updated 15 minutes ago

Clear
Clear
41 °F
Feels Like 41 °F
N
0
Wind Variable Wind from North

Today
High -- | Low -- °F
--% Chance of Precip.
Yesterday
High -- | Low -- °F
Precip. -- in
7:00 AM 7:28 PM
Waning Gibbous, 49% visible
Pressure 30.25 in
Visibility 10.0 miles
Clouds Clear
Dew Point 37 °F
Humidity 87%
Rainfall 0.00 in
Snow Depth Not available.
UV 0 out of 12
Pollen 4.40 out of 12
Air Quality Not available.
Flu Activity Not available.
METAR KMJQ 160514Z AUTO 00000KT 10SM CLR 05/03 A3025 RMK AO2

More Conditions Fewer Conditions

Pressure 30.25 in
Visibility 10.0 miles
Clouds Clear
Dew Point 37 °F
Humidity 87%
Rainfall 0.00 in
Snow Depth Not available.
UV 0 out of 12
Pollen 4.40 out of 12
Air Quality Not available.
Flu Activity Not available.
METAR KMJQ 160514Z AUTO 00000KT 10SM CLR 05/03 A3025 RMK AO2

More Conditions Fewer Conditions

10-Day Weather Forecast

Almanac

Astronomy

Sep. 16, 2014 Rise Set
Actual Time 7:00 AM CDT 7:28 PM CDT
Civil Twilight 6:31 AM CDT 7:57 PM CDT
Nautical Twilight 5:56 AM CDT 8:31 PM CDT
Astronomical Twilight 5:21 AM CDT 9:06 PM CDT
Moon 12:01 AM CDT 3:01 PM CDT
Length of Visible Light 13h 25m
Length of Day
12h 28m
Tomorrow will be 2m 59s shorter.
Waning Gibbous, 49% of the Moon is Illuminated
Today
Waning Gibbous
Sep 24
New
Oct 1
First Quarter
Oct 8
Full
Oct 15
Last Quarter

Today's Extremes

State Highs State Lows

Community

WunderPhotos

Upload Photos

1,753,702 photos uploaded!

Nearby

Snow Depth

Station Depth Elevation
No new snow has been reported.

Earthquake Activity

City Distance Mag. Time & Date
No recent earthquake activity has been reported nearby.
Minimum magnitude displayed is 2.5.

Coastal Water Temperatures

Place Temperature
No Stations Reporting

Nearby Weather Stations